Time;durP1;ratioP1;P1;durP2;ratioP2;P2;SDS_P1;SDS_P2;PMS_P1;PMS_P2;Temp;Humidity;BMP_temperature;BMP_pressure;BME280_temperature;BME280_humidity;BME280_pressure;Samples;Min_cycle;Max_cycle;Signal;HPM_P1;HPM_P2
2022/10/30 00:02:06;;;;;;;42.03;28.27;;;19.40;89.80;;;;;;5032461;28;20122;-76
2022/10/30 00:04:31;;;;;;;41.03;28.38;;;19.40;89.90;;;;;;5032890;28;20064;-76
2022/10/30 00:06:57;;;;;;;40.22;27.98;;;19.40;89.90;;;;;;5032799;28;20041;-76
2022/10/30 00:09:23;;;;;;;43.55;29.90;;;19.40;89.90;;;;;;5032984;28;20037;-76
2022/10/30 00:11:48;;;;;;;43.92;30.55;;;19.40;89.80;;;;;;5034189;28;20040;-76
2022/10/30 00:14:14;;;;;;;47.35;30.00;;;19.30;89.80;;;;;;5033606;28;20072;-76
2022/10/30 00:16:40;;;;;;;43.05;30.17;;;19.30;90.00;;;;;;5032679;28;20349;-76
2022/10/30 00:19:05;;;;;;;45.38;29.70;;;19.20;90.10;;;;;;5032545;28;20048;-76
2022/10/30 00:21:31;;;;;;;45.95;31.52;;;19.20;90.10;;;;;;5033579;28;20052;-77
2022/10/30 00:23:56;;;;;;;47.80;30.63;;;19.20;90.10;;;;;;5033200;28;20021;-78
2022/10/30 00:26:24;;;;;;;42.92;30.20;;;19.20;90.10;;;;;;5032654;28;20045;-77
2022/10/30 00:28:56;;;;;;;40.97;28.40;;;19.10;90.20;;;;;;5033570;28;20030;-78
2022/10/30 00:31:22;;;;;;;42.08;29.80;;;19.10;90.20;;;;;;5032949;28;20031;-77
2022/10/30 00:33:49;;;;;;;49.22;30.77;;;19.10;90.20;;;;;;5033033;28;20034;-77
2022/10/30 00:36:15;;;;;;;47.80;31.35;;;19.20;90.30;;;;;;5032356;28;20032;-77
2022/10/30 00:38:40;;;;;;;42.92;28.73;;;19.10;90.30;;;;;;5033142;28;20017;-78
2022/10/30 00:41:06;;;;;;;49.05;29.65;;;19.10;90.30;;;;;;5031220;28;20421;-76
2022/10/30 00:43:35;;;;;;;47.60;30.08;;;19.10;90.30;;;;;;5048142;28;21697;-75
2022/10/30 00:46:29;;;;;;;46.95;29.77;;;19.00;90.40;;;;;;5032963;28;20033;-75
2022/10/30 00:49:14;;;;;;;39.40;27.52;;;19.00;90.50;;;;;;5020775;28;20026;-75
2022/10/30 00:51:44;;;;;;;43.22;29.13;;;19.00;90.60;;;;;;5031684;28;20045;-75
2022/10/30 00:54:12;;;;;;;46.78;28.88;;;18.90;90.60;;;;;;5032694;28;20036;-75
2022/10/30 00:56:39;;;;;;;39.95;28.13;;;18.80;90.70;;;;;;5030252;28;20116;-73
2022/10/30 00:59:09;;;;;;;44.83;29.80;;;18.80;90.80;;;;;;5029961;28;20023;-74
2022/10/30 01:01:43;;;;;;;40.20;27.00;;;18.70;90.90;;;;;;5029280;28;20026;-74
2022/10/30 01:04:10;;;;;;;41.55;28.45;;;18.70;90.90;;;;;;5031871;28;20030;-75
2022/10/30 01:06:39;;;;;;;44.05;27.05;;;18.60;90.90;;;;;;5030517;28;20110;-76
2022/10/30 01:09:05;;;;;;;41.45;28.25;;;18.60;91.00;;;;;;5031150;28;20072;-74
2022/10/30 01:11:31;;;;;;;41.38;27.55;;;18.60;91.10;;;;;;5031774;28;20033;-74
2022/10/30 01:14:02;;;;;;;45.28;27.77;;;18.50;91.10;;;;;;5030455;28;20026;-74
2022/10/30 01:16:43;;;;;;;45.63;27.35;;;18.50;91.10;;;;;;5030577;28;20469;-74
2022/10/30 01:19:46;;;;;;;41.10;26.83;;;18.60;91.10;;;;;;5021121;28;20021;-75
2022/10/30 01:22:33;;;;;;;41.45;27.33;;;18.50;91.10;;;;;;5030051;28;20454;-75
2022/10/30 01:25:17;;;;;;;38.58;26.17;;;18.50;91.10;;;;;;5033680;28;20029;-74
2022/10/30 01:28:07;;;;;;;39.97;25.50;;;18.60;91.10;;;;;;5032580;28;20029;-74
2022/10/30 01:30:58;;;;;;;41.50;25.50;;;18.60;91.00;;;;;;5031037;28;20029;-75
2022/10/30 01:33:42;;;;;;;;;;;18.60;90.90;;;;;;5027307;28;20079;-74
2022/10/30 01:36:35;;;;;;;33.95;22.42;;;18.60;90.90;;;;;;5018109;28;19913;-74
2022/10/30 01:39:09;;;;;;;39.35;25.65;;;18.60;90.90;;;;;;5019138;28;20025;-74
2022/10/30 01:41:34;;;;;;;38.90;24.55;;;18.60;90.80;;;;;;5031861;28;20028;-74
2022/10/30 01:44:06;;;;;;;37.55;24.15;;;18.60;90.80;;;;;;5032758;28;20115;-74
2022/10/30 01:46:51;;;;;;;36.58;25.67;;;18.60;90.80;;;;;;5032038;28;20056;-74
2022/10/30 01:49:51;;;;;;;38.05;25.00;;;18.60;90.70;;;;;;5021299;28;20029;-74
2022/10/30 01:52:38;;;;;;;37.38;23.13;;;18.60;90.70;;;;;;5028923;28;20046;-75
2022/10/30 01:55:24;;;;;;;40.83;23.70;;;18.60;90.60;;;;;;5027502;28;20458;-75
2022/10/30 01:58:12;;;;;;;35.42;24.02;;;18.60;90.60;;;;;;5018121;28;20030;-74
2022/10/30 02:00:40;;;;;;;38.20;23.08;;;18.60;90.60;;;;;;5032147;28;20497;-75
2022/10/30 02:03:05;;;;;;;37.83;23.67;;;18.60;90.60;;;;;;5031252;28;20029;-74
2022/10/30 02:05:47;;;;;;;35.92;23.98;;;18.60;90.50;;;;;;5030124;28;20371;-74
2022/10/30 02:08:13;;;;;;;33.90;22.70;;;18.60;90.50;;;;;;5030935;28;20038;-75
2022/10/30 02:10:41;;;;;;;35.00;23.67;;;18.50;90.50;;;;;;5026883;28;20041;-74
2022/10/30 02:13:07;;;;;;;35.25;23.25;;;18.50;90.50;;;;;;5031469;28;20036;-74
2022/10/30 02:15:34;;;;;;;35.65;22.08;;;18.50;90.50;;;;;;5025790;28;20025;-75
2022/10/30 02:17:59;;;;;;;33.20;21.85;;;18.60;90.60;;;;;;5030715;28;20469;-75
2022/10/30 02:20:25;;;;;;;33.08;21.67;;;18.50;90.50;;;;;;5029915;28;20080;-74
2022/10/30 02:22:51;;;;;;;28.80;19.65;;;18.60;90.50;;;;;;5045249;28;20080;-75
2022/10/30 02:25:17;;;;;;;29.67;21.90;;;18.50;90.50;;;;;;5033253;28;20014;-75
2022/10/30 02:27:43;;;;;;;30.33;21.05;;;18.50;90.50;;;;;;5031883;28;20111;-75
2022/10/30 02:30:10;;;;;;;32.80;21.10;;;18.50;90.50;;;;;;5031260;28;20453;-77
2022/10/30 02:32:36;;;;;;;28.42;20.40;;;18.50;90.50;;;;;;5031114;28;20478;-76
2022/10/30 02:35:01;;;;;;;29.92;21.42;;;18.50;90.40;;;;;;5031784;28;20030;-75
2022/10/30 02:37:27;;;;;;;29.48;20.23;;;18.50;90.40;;;;;;5031313;28;20037;-75
2022/10/30 02:39:53;;;;;;;31.80;20.60;;;18.50;90.40;;;;;;5031426;28;20101;-75
2022/10/30 02:42:18;;;;;;;29.77;20.98;;;18.50;90.40;;;;;;5032516;28;20030;-75
2022/10/30 02:44:44;;;;;;;28.63;19.88;;;18.50;90.30;;;;;;5031450;28;20033;-75
2022/10/30 02:47:10;;;;;;;28.65;20.48;;;18.50;90.20;;;;;;5034769;28;20037;-76
2022/10/30 02:49:35;;;;;;;28.52;19.48;;;18.50;90.20;;;;;;5035584;28;20038;-75
2022/10/30 02:52:02;;;;;;;30.90;20.98;;;18.50;90.20;;;;;;5036162;28;20572;-76
2022/10/30 02:54:27;;;;;;;32.47;20.13;;;18.50;90.20;;;;;;5034862;28;20055;-76
2022/10/30 02:56:53;;;;;;;30.20;20.55;;;18.40;90.10;;;;;;5040021;28;20438;-75
2022/10/30 02:59:19;;;;;;;28.30;19.23;;;18.50;90.10;;;;;;5040167;28;20014;-76
2022/10/30 03:01:45;;;;;;;26.65;18.60;;;18.40;90.10;;;;;;5036058;28;20045;-76
2022/10/30 03:04:11;;;;;;;31.15;18.60;;;18.40;90.10;;;;;;5032041;28;20072;-77
2022/10/30 03:06:36;;;;;;;26.23;18.40;;;18.40;90.20;;;;;;5035849;28;20490;-76
2022/10/30 03:09:02;;;;;;;28.85;19.33;;;18.40;90.20;;;;;;5033180;28;20432;-76
2022/10/30 03:11:28;;;;;;;27.70;18.67;;;18.40;90.20;;;;;;5035825;28;20107;-76
2022/10/30 03:13:54;;;;;;;28.27;18.88;;;18.40;90.10;;;;;;5033836;28;20533;-76
2022/10/30 03:16:22;;;;;;;30.48;19.50;;;18.40;90.10;;;;;;5034337;28;20029;-76
2022/10/30 03:18:48;;;;;;;24.45;17.83;;;18.40;90.20;;;;;;5035070;28;20647;-76
2022/10/30 03:21:17;;;;;;;24.23;18.45;;;18.30;90.20;;;;;;5032427;28;20043;-76
2022/10/30 03:23:43;;;;;;;25.65;18.42;;;18.30;90.10;;;;;;5033489;28;20113;-75
2022/10/30 03:26:09;;;;;;;31.33;18.67;;;18.30;90.10;;;;;;5035416;28;20115;-75
2022/10/30 03:28:35;;;;;;;30.27;18.88;;;18.30;90.10;;;;;;5032961;28;20034;-75
2022/10/30 03:31:07;;;;;;;24.85;19.25;;;18.30;90.10;;;;;;5033793;28;20450;-76
2022/10/30 03:33:34;;;;;;;26.88;18.67;;;18.20;90.00;;;;;;5031559;28;20040;-75
2022/10/30 03:36:00;;;;;;;26.75;18.65;;;18.30;90.00;;;;;;5033656;28;20087;-76
2022/10/30 03:38:26;;;;;;;30.55;19.08;;;18.30;90.00;;;;;;5032281;28;20025;-76
2022/10/30 03:40:52;;;;;;;28.65;17.55;;;18.20;90.00;;;;;;5033387;28;20040;-75
2022/10/30 03:43:19;;;;;;;26.23;17.38;;;18.20;89.80;;;;;;5032310;28;20033;-75
2022/10/30 03:45:51;;;;;;;23.60;17.27;;;18.20;89.80;;;;;;5031880;28;20033;-76
2022/10/30 03:48:19;;;;;;;24.90;17.50;;;18.20;89.90;;;;;;5031837;28;20064;-76
2022/10/30 03:50:45;;;;;;;25.23;17.15;;;18.10;89.90;;;;;;5033643;28;20033;-77
2022/10/30 03:53:12;;;;;;;28.05;17.90;;;18.10;90.00;;;;;;5032583;28;20033;-76
2022/10/30 03:55:38;;;;;;;25.50;17.52;;;18.10;90.00;;;;;;5034613;28;20110;-76
2022/10/30 03:58:04;;;;;;;27.30;17.30;;;18.10;89.90;;;;;;5032157;28;20442;-76
2022/10/30 04:00:30;;;;;;;25.92;16.17;;;18.10;89.90;;;;;;5033254;28;20038;-76
2022/10/30 04:02:56;;;;;;;21.88;16.48;;;18.10;89.90;;;;;;5032197;28;20029;-77
2022/10/30 04:05:25;;;;;;;25.08;16.92;;;18.00;89.80;;;;;;5034148;28;20075;-77
2022/10/30 04:07:56;;;;;;;29.55;16.60;;;18.10;89.80;;;;;;5034019;28;20029;-77
2022/10/30 04:10:22;;;;;;;22.98;15.63;;;18.10;89.80;;;;;;5034080;28;20029;-76
2022/10/30 04:12:47;;;;;;;23.05;16.27;;;18.00;89.70;;;;;;5034249;28;20424;-76
2022/10/30 04:15:13;;;;;;;20.83;15.23;;;18.00;89.80;;;;;;5034242;28;20026;-76
2022/10/30 04:17:39;;;;;;;21.05;15.75;;;17.90;89.80;;;;;;5049119;28;20069;-76
2022/10/30 04:20:05;;;;;;;25.13;16.02;;;17.90;89.90;;;;;;5033661;28;20040;-76
2022/10/30 04:22:31;;;;;;;20.75;15.70;;;17.80;89.80;;;;;;5048901;28;20515;-76
2022/10/30 04:24:57;;;;;;;20.40;15.27;;;17.80;89.80;;;;;;5025475;28;20060;-76
2022/10/30 04:27:22;;;;;;;23.05;15.77;;;17.70;89.80;;;;;;5034211;28;20152;-77
2022/10/30 04:29:48;;;;;;;23.30;15.65;;;17.60;90.00;;;;;;5030926;28;20400;-77
2022/10/30 04:32:14;;;;;;;21.25;14.88;;;17.60;90.10;;;;;;5032242;28;20029;-76
2022/10/30 04:34:39;;;;;;;21.08;15.05;;;17.50;90.10;;;;;;5030781;28;20040;-76
2022/10/30 04:37:05;;;;;;;24.02;15.23;;;17.60;90.20;;;;;;5033970;28;20095;-76
2022/10/30 04:39:31;;;;;;;23.30;15.40;;;17.60;90.30;;;;;;5031396;28;20531;-76
2022/10/30 04:41:57;;;;;;;18.20;14.30;;;17.60;90.10;;;;;;5032250;28;20532;-75
2022/10/30 04:44:23;;;;;;;24.80;14.43;;;17.60;90.40;;;;;;5032128;28;20033;-75
2022/10/30 04:46:48;;;;;;;19.17;13.73;;;17.60;90.20;;;;;;5033384;28;20470;-74
2022/10/30 04:49:14;;;;;;;22.55;14.38;;;17.60;90.30;;;;;;5020720;28;20085;-75
2022/10/30 04:51:40;;;;;;;21.30;13.85;;;17.50;90.30;;;;;;5031915;28;20064;-75
2022/10/30 04:54:05;;;;;;;21.77;14.75;;;17.60;90.30;;;;;;5032820;28;20030;-75
2022/10/30 04:56:34;;;;;;;22.05;14.13;;;17.60;90.20;;;;;;5033852;28;20037;-76
2022/10/30 04:58:59;;;;;;;20.27;14.07;;;17.60;90.30;;;;;;5046185;28;20032;-75
2022/10/30 05:01:25;;;;;;;18.10;14.35;;;17.60;90.30;;;;;;5033210;28;20029;-75
2022/10/30 05:03:51;;;;;;;22.20;15.10;;;17.50;90.30;;;;;;5028721;28;20038;-75
2022/10/30 05:06:26;;;;;;;31.80;16.60;;;17.50;90.30;;;;;;5033020;28;20054;-75
2022/10/30 05:08:53;;;;;;;22.55;15.18;;;17.50;90.40;;;;;;5031890;28;20565;-75
2022/10/30 05:11:19;;;;;;;24.13;15.63;;;17.50;90.40;;;;;;5032095;28;20041;-75
2022/10/30 05:13:45;;;;;;;20.77;14.68;;;17.50;90.40;;;;;;5031155;28;20032;-75
2022/10/30 05:16:10;;;;;;;21.20;16.33;;;17.40;90.70;;;;;;5031891;28;20104;-75
2022/10/30 05:18:36;;;;;;;23.05;15.73;;;17.40;90.50;;;;;;5048575;28;20164;-75
2022/10/30 05:21:02;;;;;;;23.80;16.02;;;17.40;90.60;;;;;;5032672;28;20034;-75
2022/10/30 05:23:27;;;;;;;23.63;16.25;;;17.40;90.60;;;;;;5031872;28;20036;-75
2022/10/30 05:25:53;;;;;;;21.80;15.35;;;17.50;90.60;;;;;;5032078;28;20087;-75
2022/10/30 05:28:19;;;;;;;25.67;15.75;;;17.50;90.60;;;;;;5031945;28;20037;-75
2022/10/30 05:30:44;;;;;;;20.63;15.43;;;17.40;90.50;;;;;;5030928;28;20111;-75
2022/10/30 05:33:11;;;;;;;19.13;15.55;;;17.50;90.50;;;;;;5030142;28;20088;-75
2022/10/30 05:35:38;;;;;;;24.75;15.05;;;17.50;90.70;;;;;;5032016;28;20421;-75
2022/10/30 05:38:06;;;;;;;20.08;14.23;;;17.50;90.40;;;;;;5030323;28;20036;-75
2022/10/30 05:40:32;;;;;;;20.98;16.30;;;17.50;90.50;;;;;;5032783;28;20087;-76
2022/10/30 05:42:58;;;;;;;23.80;15.07;;;17.40;90.70;;;;;;5031077;28;20026;-76
2022/10/30 05:45:24;;;;;;;20.35;14.55;;;17.40;90.50;;;;;;5031671;28;20033;-76
2022/10/30 05:48:01;;;;;;;19.67;14.00;;;17.30;90.50;;;;;;5019280;28;20026;-76
2022/10/30 05:50:28;;;;;;;22.85;15.40;;;17.30;90.60;;;;;;5031868;28;20052;-76
2022/10/30 05:52:58;;;;;;;20.65;14.68;;;17.20;90.60;;;;;;5032142;28;20478;-76
2022/10/30 05:55:24;;;;;;;;;;;17.20;90.70;;;;;;5030761;28;20493;-76
2022/10/30 05:57:53;;;;;;;20.10;13.02;;;17.10;90.80;;;;;;5030765;28;19909;-76
2022/10/30 06:00:19;;;;;;;21.35;12.93;;;17.00;90.90;;;;;;5032047;28;20435;-76
2022/10/30 06:02:45;;;;;;;20.42;13.82;;;17.00;90.90;;;;;;5029819;28;20037;-76
2022/10/30 06:05:10;;;;;;;18.15;12.23;;;16.90;91.00;;;;;;5031350;28;20040;-76
2022/10/30 06:07:36;;;;;;;19.42;12.88;;;16.90;91.10;;;;;;5029079;28;20039;-76
2022/10/30 06:10:02;;;;;;;18.58;12.80;;;16.90;91.10;;;;;;5031860;28;20385;-77
2022/10/30 06:12:27;;;;;;;17.35;12.32;;;16.90;91.10;;;;;;5029332;28;20030;-75
2022/10/30 06:14:53;;;;;;;18.90;12.77;;;16.90;91.10;;;;;;5031625;28;20117;-76
2022/10/30 06:17:19;;;;;;;22.15;13.25;;;17.00;91.10;;;;;;5031278;28;20033;-76
2022/10/30 06:19:44;;;;;;;21.73;12.65;;;17.10;91.00;;;;;;5031762;28;20030;-76
2022/10/30 06:22:10;;;;;;;15.70;11.95;;;17.10;90.90;;;;;;5030887;28;20112;-77
2022/10/30 06:24:36;;;;;;;19.08;12.60;;;17.20;90.90;;;;;;5029758;28;20128;-76
2022/10/30 06:27:01;;;;;;;22.60;13.20;;;17.20;90.80;;;;;;5031675;28;20030;-76
2022/10/30 06:29:27;;;;;;;18.70;12.50;;;17.20;90.80;;;;;;5031247;28;20119;-76
2022/10/30 06:31:52;;;;;;;18.58;11.93;;;17.20;90.80;;;;;;5030245;28;20069;-75
2022/10/30 06:34:18;;;;;;;15.48;11.77;;;17.10;90.80;;;;;;5031851;28;20040;-76
2022/10/30 06:36:44;;;;;;;16.98;12.25;;;17.10;90.90;;;;;;5029096;28;20446;-76
2022/10/30 06:39:09;;;;;;;18.35;12.88;;;17.10;91.00;;;;;;5031235;28;20465;-86
2022/10/30 06:41:35;;;;;;;19.02;11.63;;;17.20;91.00;;;;;;5030407;28;20477;-86
2022/10/30 06:44:01;;;;;;;18.55;11.90;;;17.20;90.90;;;;;;5024917;28;21774;-84
2022/10/30 06:46:26;;;;;;;17.77;12.48;;;17.20;90.80;;;;;;5029926;28;20041;-75
2022/10/30 06:48:52;;;;;;;21.25;12.23;;;17.30;90.80;;;;;;5028704;28;20526;-84
2022/10/30 06:51:18;;;;;;;16.67;12.25;;;17.30;90.80;;;;;;5029281;28;20659;-76
2022/10/30 06:53:43;;;;;;;15.32;11.02;;;17.30;90.80;;;;;;5023963;28;20033;-84
2022/10/30 06:56:09;;;;;;;16.05;11.75;;;17.30;90.80;;;;;;5022488;28;20025;-75
2022/10/30 06:58:37;;;;;;;17.52;12.35;;;17.30;90.80;;;;;;5025267;28;20071;-80
2022/10/30 07:01:07;;;;;;;16.58;11.82;;;17.30;90.80;;;;;;5029467;28;20112;-76
2022/10/30 07:03:33;;;;;;;23.13;12.27;;;17.30;90.90;;;;;;5023415;28;20202;-76
2022/10/30 07:05:59;;;;;;;19.30;11.43;;;17.40;90.90;;;;;;5023847;28;20117;-81
2022/10/30 07:08:25;;;;;;;15.93;11.35;;;17.40;90.90;;;;;;5028838;28;20109;-79
2022/10/30 07:10:51;;;;;;;14.38;11.43;;;17.50;90.80;;;;;;5030237;28;20033;-79
2022/10/30 07:13:17;;;;;;;19.60;12.43;;;17.50;91.00;;;;;;5029546;28;20576;-74
2022/10/30 07:15:43;;;;;;;14.98;11.15;;;17.60;90.70;;;;;;5026960;28;20025;-74
2022/10/30 07:18:09;;;;;;;18.10;11.98;;;17.70;90.70;;;;;;5021800;28;20041;-81
2022/10/30 07:20:35;;;;;;;19.27;12.23;;;17.70;90.70;;;;;;5029555;28;20025;-80
2022/10/30 07:23:02;;;;;;;17.25;11.80;;;17.80;90.70;;;;;;5028220;28;20034;-80
2022/10/30 07:25:28;;;;;;;17.13;11.48;;;17.80;90.60;;;;;;5020023;28;20029;-79
2022/10/30 07:27:55;;;;;;;16.52;11.77;;;17.90;90.60;;;;;;5030458;28;20466;-78
2022/10/30 07:30:23;;;;;;;16.85;12.15;;;17.90;90.60;;;;;;5027872;28;20041;-80
2022/10/30 07:33:00;;;;;;;17.48;12.77;;;18.00;90.60;;;;;;5026902;28;20059;-81
2022/10/30 07:35:26;;;;;;;18.90;12.15;;;18.10;90.60;;;;;;5027614;28;20080;-75
2022/10/30 07:37:53;;;;;;;19.00;13.18;;;18.10;90.60;;;;;;5030451;28;20034;-82
2022/10/30 07:40:19;;;;;;;18.27;11.90;;;18.20;90.60;;;;;;5024798;28;20026;-89
2022/10/30 07:42:45;;;;;;;15.98;11.55;;;18.20;90.50;;;;;;5036092;28;20109;-88
2022/10/30 07:45:10;;;;;;;19.27;12.40;;;18.30;90.50;;;;;;5035205;28;20100;-89
2022/10/30 07:47:40;;;;;;;17.45;12.15;;;18.40;90.50;;;;;;5035355;28;20409;-89
2022/10/30 07:50:07;;;;;;;17.90;12.07;;;18.50;90.40;;;;;;5033514;28;20025;-89
2022/10/30 07:52:33;;;;;;;17.13;11.80;;;18.60;90.30;;;;;;5041019;28;20029;-89
2022/10/30 07:54:58;;;;;;;17.58;11.77;;;18.60;90.30;;;;;;5037752;28;20060;-79
2022/10/30 07:57:24;;;;;;;16.33;11.55;;;18.70;90.10;;;;;;5033593;28;20030;-80
2022/10/30 07:59:50;;;;;;;17.05;11.63;;;18.80;90.00;;;;;;5033013;28;20056;-79
2022/10/30 08:02:15;;;;;;;19.38;11.70;;;18.90;89.80;;;;;;5033136;28;20026;-79
2022/10/30 08:04:41;;;;;;;17.38;12.52;;;19.00;89.80;;;;;;5032061;28;20024;-80
2022/10/30 08:07:07;;;;;;;16.77;11.65;;;19.00;89.70;;;;;;5032999;28;20485;-79
2022/10/30 08:09:32;;;;;;;15.23;11.52;;;19.20;89.50;;;;;;5032803;28;20041;-80
2022/10/30 08:11:58;;;;;;;17.40;12.10;;;19.30;89.30;;;;;;5033627;28;20037;-80
2022/10/30 08:14:36;;;;;;;17.50;12.68;;;19.40;88.90;;;;;;5030416;28;20048;-76
2022/10/30 08:17:04;;;;;;;17.30;11.33;;;19.50;88.60;;;;;;5026141;28;20826;-80
2022/10/30 08:19:33;;;;;;;17.25;11.35;;;19.60;88.10;;;;;;5026291;28;20136;-79
2022/10/30 08:21:58;;;;;;;15.70;11.80;;;19.70;87.80;;;;;;5027495;28;20108;-80
2022/10/30 08:24:24;;;;;;;16.02;11.63;;;19.80;87.60;;;;;;5024683;28;20706;-79
2022/10/30 08:26:53;;;;;;;22.75;11.13;;;20.00;87.60;;;;;;5023925;28;20037;-79
2022/10/30 08:29:18;;;;;;;19.58;12.15;;;20.10;87.30;;;;;;5030344;28;20037;-80
2022/10/30 08:31:47;;;;;;;14.77;11.93;;;20.30;87.00;;;;;;5029429;28;20033;-80
2022/10/30 08:34:13;;;;;;;16.88;11.52;;;20.40;86.50;;;;;;5024698;28;20034;-79
2022/10/30 08:36:39;;;;;;;19.33;13.02;;;20.50;86.10;;;;;;5024311;28;20036;-79
2022/10/30 08:39:04;;;;;;;16.33;11.00;;;20.70;85.40;;;;;;5030731;28;20358;-78
2022/10/30 08:41:30;;;;;;;16.33;10.88;;;20.70;85.40;;;;;;5019867;28;20466;-79
2022/10/30 08:43:56;;;;;;;18.77;10.88;;;20.90;85.30;;;;;;5026341;28;20025;-79
2022/10/30 08:46:21;;;;;;;21.45;12.60;;;21.00;85.10;;;;;;5023957;28;20381;-79
2022/10/30 08:48:47;;;;;;;21.33;12.60;;;21.20;84.70;;;;;;5000370;28;20871;-79
2022/10/30 08:51:13;;;;;;;18.95;11.95;;;21.30;84.20;;;;;;5009473;28;20124;-79
2022/10/30 08:53:39;;;;;;;16.77;10.35;;;21.40;83.50;;;;;;5021294;28;20124;-79
2022/10/30 08:56:05;;;;;;;15.77;10.70;;;21.50;82.80;;;;;;5024789;28;20481;-80
2022/10/30 08:58:30;;;;;;;18.27;11.27;;;21.50;82.60;;;;;;5024588;28;20104;-78
2022/10/30 09:00:56;;;;;;;16.27;11.57;;;21.60;82.30;;;;;;5023017;28;20022;-80
2022/10/30 09:03:22;;;;;;;16.08;11.55;;;21.70;82.30;;;;;;5022480;28;20041;-79
2022/10/30 09:05:48;;;;;;;17.60;11.02;;;21.80;81.40;;;;;;5021006;28;20136;-86
2022/10/30 09:08:14;;;;;;;19.83;11.38;;;21.90;81.80;;;;;;5012361;28;21061;-88
2022/10/30 09:10:40;;;;;;;21.80;11.52;;;22.00;81.60;;;;;;5016419;28;20104;-88
2022/10/30 09:13:06;;;;;;;16.23;11.68;;;22.20;81.30;;;;;;5014392;28;20057;-88
2022/10/30 09:15:32;;;;;;;14.88;10.75;;;22.30;80.90;;;;;;5016420;28;20029;-86
2022/10/30 09:18:05;;;;;;;16.75;10.55;;;22.40;80.60;;;;;;5008639;28;20032;-82
2022/10/30 09:20:46;;;;;;;15.70;11.10;;;22.60;80.40;;;;;;5014971;28;21235;-83
2022/10/30 09:23:17;;;;;;;19.05;11.73;;;22.70;80.20;;;;;;5021075;28;20025;-82
2022/10/30 09:25:52;;;;;;;17.50;11.73;;;22.90;80.00;;;;;;5016978;28;20088;-82
2022/10/30 09:28:18;;;;;;;15.13;11.93;;;23.00;79.70;;;;;;5019011;28;20057;-83
2022/10/30 09:30:44;;;;;;;16.42;11.00;;;23.10;79.10;;;;;;5022531;28;20060;-80
2022/10/30 09:33:10;;;;;;;17.55;11.35;;;23.30;78.90;;;;;;5020875;28;20080;-78
2022/10/30 09:35:36;;;;;;;13.63;10.60;;;23.30;78.60;;;;;;5024003;28;20410;-75
2022/10/30 09:38:02;;;;;;;19.83;10.73;;;23.40;78.10;;;;;;5019621;28;20031;-75
2022/10/30 09:40:56;;;;;;;15.85;10.65;;;23.50;77.50;;;;;;5023751;28;20100;-79
2022/10/30 09:44:00;;;;;;;17.05;10.00;;;23.60;76.90;;;;;;5022687;28;20489;-75
2022/10/30 09:46:47;;;;;;;15.63;9.50;;;23.80;76.70;;;;;;4976006;28;20512;-76
2022/10/30 09:49:26;;;;;;;15.05;9.45;;;23.90;76.70;;;;;;5021913;28;20034;-76
2022/10/30 09:52:07;;;;;;;11.35;8.70;;;24.10;76.60;;;;;;5015749;28;20473;-76
2022/10/30 09:54:47;;;;;;;12.70;9.43;;;24.20;76.20;;;;;;5024758;28;20034;-77
2022/10/30 09:57:36;;;;;;;10.40;8.27;;;24.40;75.90;;;;;;5022907;28;20021;-77
2022/10/30 10:00:10;;;;;;;13.40;9.40;;;24.50;75.20;;;;;;5017581;28;20046;-76
2022/10/30 10:02:52;;;;;;;13.02;9.07;;;24.70;74.90;;;;;;5025880;28;20460;-81
2022/10/30 10:05:28;;;;;;;11.40;8.55;;;24.80;74.10;;;;;;5026016;28;20052;-74
2022/10/30 10:08:06;;;;;;;16.23;7.88;;;24.80;73.50;;;;;;5020113;28;20041;-77
2022/10/30 10:10:43;;;;;;;10.90;7.20;;;25.00;73.00;;;;;;5021266;28;20108;-79
2022/10/30 10:13:42;;;;;;;11.40;7.03;;;25.10;72.90;;;;;;5020302;28;20091;-79
2022/10/30 10:16:20;;;;;;;12.80;7.13;;;25.30;72.50;;;;;;5008756;28;20053;-79
2022/10/30 10:18:55;;;;;;;11.48;8.52;;;25.40;72.00;;;;;;5023015;28;20083;-79
2022/10/30 10:21:25;;;;;;;14.57;8.15;;;25.50;71.60;;;;;;5021947;28;20026;-80
2022/10/30 10:24:01;;;;;;;;;;;25.60;71.30;;;;;;5019582;28;20056;-80
2022/10/30 10:26:44;;;;;;;14.75;7.57;;;25.70;70.60;;;;;;5024161;28;19991;-79
2022/10/30 10:29:41;;;;;;;9.80;7.13;;;25.80;70.20;;;;;;5020143;28;20382;-80
2022/10/30 10:32:19;;;;;;;15.48;6.68;;;25.90;70.00;;;;;;5017467;28;20029;-79
2022/10/30 10:35:02;;;;;;;14.45;8.32;;;26.10;70.00;;;;;;5024320;28;20048;-79
2022/10/30 10:37:40;;;;;;;10.05;6.68;;;26.20;69.60;;;;;;5026297;28;20491;-79
2022/10/30 10:40:40;;;;;;;12.77;7.43;;;26.40;69.30;;;;;;5025472;28;20418;-75
2022/10/30 10:43:12;;;;;;;13.10;8.30;;;26.40;68.20;;;;;;5026342;28;20437;-75
2022/10/30 10:45:49;;;;;;;14.57;7.72;;;26.60;67.90;;;;;;5028954;28;20030;-76
2022/10/30 10:48:30;;;;;;;13.30;8.07;;;26.70;67.40;;;;;;5027995;28;20049;-76
2022/10/30 10:51:02;;;;;;;13.02;8.60;;;26.80;67.00;;;;;;5028081;28;20028;-76
2022/10/30 10:53:44;;;;;;;17.60;10.05;;;26.90;67.00;;;;;;5028853;28;20033;-75
2022/10/30 10:56:11;;;;;;;14.48;9.18;;;27.00;66.30;;;;;;5023487;28;20473;-75
2022/10/30 10:58:51;;;;;;;17.17;9.23;;;27.00;66.30;;;;;;5027167;28;20033;-76
2022/10/30 11:01:23;;;;;;;13.23;9.45;;;27.20;66.00;;;;;;5023508;28;20103;-76
2022/10/30 11:04:04;;;;;;;14.85;10.63;;;27.30;65.90;;;;;;5027004;28;20487;-76
2022/10/30 11:06:34;;;;;;;16.60;9.45;;;27.50;65.20;;;;;;5020508;28;20414;-76
2022/10/30 11:09:13;;;;;;;15.90;9.70;;;27.60;65.10;;;;;;5030978;28;20502;-76
2022/10/30 11:11:39;;;;;;;22.25;13.02;;;27.70;65.50;;;;;;5034651;28;20029;-75
2022/10/30 11:14:19;;;;;;;18.98;10.48;;;27.90;64.80;;;;;;5031241;28;20037;-75
2022/10/30 11:17:09;;;;;;;24.08;13.98;;;28.00;64.60;;;;;;5028286;28;20365;-80
2022/10/30 11:19:34;;;;;;;18.90;11.98;;;28.30;63.90;;;;;;5032409;28;20032;-75
2022/10/30 11:22:00;;;;;;;20.55;11.55;;;28.50;63.90;;;;;;5028558;28;20029;-75
2022/10/30 11:24:35;;;;;;;22.33;12.40;;;28.90;63.90;;;;;;5027895;28;20038;-75
2022/10/30 11:27:29;;;;;;;21.80;13.43;;;29.60;63.40;;;;;;5033341;28;20029;-76
2022/10/30 11:29:59;;;;;;;20.30;14.02;;;30.80;61.30;;;;;;5023372;28;20033;-75
2022/10/30 11:32:27;;;;;;;18.80;13.65;;;31.80;59.40;;;;;;5031079;28;20053;-80
2022/10/30 11:35:20;;;;;;;22.08;14.00;;;32.70;57.50;;;;;;5032845;28;20033;-80
2022/10/30 11:37:48;;;;;;;26.92;13.75;;;33.60;54.70;;;;;;5023221;28;20042;-88
2022/10/30 11:40:15;;;;;;;24.30;14.27;;;34.20;53.20;;;;;;5027580;28;20033;-87
2022/10/30 11:42:48;;;;;;;26.50;14.75;;;34.80;51.80;;;;;;5033879;28;20025;-88
2022/10/30 11:45:18;;;;;;;25.75;14.02;;;35.20;50.70;;;;;;5028980;28;20029;-82
2022/10/30 11:47:46;;;;;;;24.20;15.88;;;35.50;49.70;;;;;;5033057;28;20069;-82
2022/10/30 11:50:29;;;;;;;21.08;14.52;;;35.90;49.10;;;;;;5029581;28;20088;-82
2022/10/30 11:53:10;;;;;;;21.42;14.13;;;36.10;48.00;;;;;;5029615;28;20017;-88
2022/10/30 11:55:44;;;;;;;20.73;14.25;;;36.30;47.10;;;;;;5031554;28;20081;-81
2022/10/30 11:58:37;;;;;;;21.80;15.73;;;36.30;46.30;;;;;;5035425;28;20096;-87
2022/10/30 12:01:27;;;;;;;32.15;16.45;;;36.50;46.70;;;;;;5038691;28;20048;-86
2022/10/30 12:03:54;;;;;;;21.08;15.27;;;36.50;46.60;;;;;;5044480;28;20101;-87
2022/10/30 12:06:24;;;;;;;23.88;16.67;;;36.50;46.80;;;;;;5039922;28;20065;-87
2022/10/30 12:08:59;;;;;;;;;;;36.50;46.40;;;;;;5045765;28;20029;-89
2022/10/30 12:11:33;;;;;;;24.77;17.02;;;36.40;46.10;;;;;;5040869;28;19913;-87
2022/10/30 12:14:00;;;;;;;26.52;17.80;;;36.20;46.70;;;;;;5031736;28;20048;-79
2022/10/30 12:16:56;;;;;;;28.98;18.15;;;36.00;46.80;;;;;;5032294;28;20029;-86
2022/10/30 12:19:25;;;;;;;27.20;17.30;;;35.80;47.00;;;;;;5025211;28;20037;-80
2022/10/30 12:21:53;;;;;;;26.40;17.65;;;35.60;47.10;;;;;;5023852;28;20030;-78
2022/10/30 12:24:35;;;;;;;21.17;16.55;;;35.40;47.10;;;;;;5033616;28;20033;-86
2022/10/30 12:27:03;;;;;;;28.02;17.70;;;35.30;47.50;;;;;;5028203;28;20107;-79
2022/10/30 12:30:00;;;;;;;24.77;17.73;;;35.20;47.90;;;;;;5031095;28;20036;-79
2022/10/30 12:32:36;;;;;;;29.60;20.55;;;35.00;48.30;;;;;;5031329;28;20140;-78
2022/10/30 12:35:20;;;;;;;24.10;17.88;;;35.00;48.80;;;;;;5025252;28;20033;-81
2022/10/30 12:37:51;;;;;;;27.25;20.33;;;35.00;49.20;;;;;;5027105;28;20038;-88
2022/10/30 12:40:30;;;;;;;27.02;20.67;;;35.00;49.50;;;;;;5024122;28;20018;-83
2022/10/30 12:43:14;;;;;;;32.42;21.30;;;35.00;49.50;;;;;;5033504;28;20056;-75
2022/10/30 12:45:46;;;;;;;27.70;20.10;;;35.10;49.60;;;;;;5023695;28;20038;-83